createdAt,value
2018-03-25T00:00:30.142Z,44.13
2018-03-25T00:02:58.396Z,43.67
2018-03-25T00:05:25.901Z,49.03
2018-03-25T00:07:53.467Z,49.85
2018-03-25T00:10:21.010Z,42.67
2018-03-25T00:12:48.529Z,43.20
2018-03-25T00:15:16.052Z,43.20
2018-03-25T00:17:43.572Z,46.37
2018-03-25T00:20:11.083Z,44.72
2018-03-25T00:22:38.588Z,43.25
2018-03-25T00:25:06.150Z,43.80
2018-03-25T00:27:33.802Z,46.70
2018-03-25T00:30:01.344Z,44.88
2018-03-25T00:32:28.890Z,45.70
2018-03-25T00:34:57.179Z,44.20
2018-03-25T00:37:25.449Z,46.67
2018-03-25T00:39:52.955Z,50.00
2018-03-25T00:42:20.533Z,41.92
2018-03-25T00:44:48.019Z,46.25
2018-03-25T00:47:15.572Z,44.63
2018-03-25T00:49:43.062Z,44.03
2018-03-25T00:52:10.577Z,50.58
2018-03-25T00:54:38.885Z,44.60
2018-03-25T00:57:06.395Z,48.33
2018-03-25T00:59:33.896Z,50.50
2018-03-25T01:02:02.159Z,49.08
2018-03-25T01:04:29.677Z,41.03
2018-03-25T01:06:57.175Z,44.80
2018-03-25T01:09:25.489Z,40.53
2018-03-25T01:11:52.991Z,45.83
2018-03-25T01:14:20.520Z,47.17
2018-03-25T01:16:48.467Z,47.50
2018-03-25T01:19:16.746Z,45.45
2018-03-25T01:21:44.260Z,53.42
2018-03-25T01:24:11.773Z,48.47
2018-03-25T01:26:39.261Z,57.30
2018-03-25T01:29:06.764Z,50.30
2018-03-25T01:31:34.285Z,51.63
2018-03-25T01:34:01.796Z,45.45
2018-03-25T01:36:30.079Z,47.60
2018-03-25T01:38:57.590Z,50.20
2018-03-25T01:41:25.537Z,46.63
2018-03-25T01:43:53.031Z,47.45
2018-03-25T01:46:20.553Z,46.33
2018-03-25T01:48:48.052Z,43.63
2018-03-25T01:51:15.546Z,52.85
2018-03-25T01:53:45.478Z,48.55
2018-03-25T01:56:12.972Z,48.08
2018-03-25T01:58:40.496Z,51.28
2018-03-25T02:01:08.032Z,45.00
2018-03-25T02:03:36.313Z,46.78
2018-03-25T02:06:04.575Z,48.20
2018-03-25T02:08:32.143Z,50.25
2018-03-25T02:10:59.637Z,58.08
2018-03-25T02:13:27.141Z,48.00
2018-03-25T02:15:54.662Z,49.78
2018-03-25T02:18:22.929Z,48.92
2018-03-25T02:20:50.464Z,47.70
2018-03-25T02:23:18.800Z,47.80
2018-03-25T02:25:46.322Z,48.58
2018-03-25T02:28:13.824Z,46.80
2018-03-25T02:30:41.359Z,49.47
2018-03-25T02:33:08.881Z,50.80
2018-03-25T02:35:37.384Z,50.55
2018-03-25T02:38:04.920Z,43.38
2018-03-25T02:40:33.219Z,48.67
2018-03-25T02:43:00.768Z,61.13
2018-03-25T02:45:29.025Z,51.08
2018-03-25T02:47:56.833Z,61.47
2018-03-25T02:50:24.339Z,50.40
2018-03-25T02:52:51.870Z,51.83
2018-03-25T02:55:19.523Z,48.47
2018-03-25T02:57:47.091Z,53.10
2018-03-25T03:00:14.629Z,49.58
2018-03-25T03:02:42.129Z,53.58
2018-03-25T03:05:09.664Z,48.92
2018-03-25T03:07:37.182Z,48.67
2018-03-25T03:10:05.459Z,48.78
2018-03-25T03:12:33.734Z,56.20
2018-03-25T03:15:01.268Z,56.17
2018-03-25T03:17:28.805Z,61.90
2018-03-25T03:19:56.330Z,55.67
2018-03-25T03:22:24.050Z,56.13
2018-03-25T03:24:51.552Z,51.90
2018-03-25T03:27:19.079Z,54.10
2018-03-25T03:29:46.578Z,49.55
2018-03-25T03:32:14.094Z,53.00
2018-03-25T03:34:41.678Z,55.00
2018-03-25T03:37:09.200Z,55.20
2018-03-25T03:39:36.693Z,49.95
2018-03-25T03:42:04.187Z,53.45
2018-03-25T03:44:31.715Z,56.95
2018-03-25T03:46:59.445Z,51.67
2018-03-25T03:49:26.982Z,55.17
2018-03-25T03:51:54.486Z,46.55
2018-03-25T03:54:22.271Z,55.92
2018-03-25T03:56:50.572Z,54.78
2018-03-25T03:59:18.092Z,53.60
2018-03-25T04:01:46.527Z,52.13
2018-03-25T04:04:14.033Z,48.08
2018-03-25T04:06:41.546Z,48.42
2018-03-25T04:09:09.155Z,57.45
2018-03-25T04:11:36.671Z,55.58
2018-03-25T04:14:04.176Z,54.05
2018-03-25T04:16:32.472Z,60.60
2018-03-25T04:19:00.719Z,50.35
2018-03-25T04:21:28.243Z,58.58
2018-03-25T04:23:55.746Z,57.97
2018-03-25T04:26:23.264Z,52.85
2018-03-25T04:28:50.767Z,57.65
2018-03-25T04:31:18.283Z,53.75
2018-03-25T04:33:46.792Z,60.35
2018-03-25T04:36:15.139Z,50.35
2018-03-25T04:38:42.678Z,55.47
2018-03-25T04:41:10.944Z,51.97
2018-03-25T04:43:38.499Z,59.53
2018-03-25T04:46:06.759Z,59.80
2018-03-25T04:48:34.271Z,55.80
2018-03-25T04:51:01.829Z,68.07
2018-03-25T04:53:29.343Z,47.97
2018-03-25T04:55:56.891Z,52.20
2018-03-25T04:58:24.391Z,57.95
2018-03-25T05:00:52.740Z,45.55
2018-03-25T05:03:20.236Z,49.83
2018-03-25T05:05:47.752Z,42.67
2018-03-25T05:08:15.244Z,46.78
2018-03-25T05:10:42.781Z,46.65
2018-03-25T05:13:10.317Z,44.95
2018-03-25T05:15:37.832Z,47.05
2018-03-25T05:18:05.346Z,48.20
2018-03-25T05:20:32.831Z,42.97
2018-03-25T05:23:01.110Z,50.88
2018-03-25T05:25:29.380Z,51.08
2018-03-25T05:27:56.946Z,46.97
2018-03-25T05:30:25.212Z,50.55
2018-03-25T05:32:53.484Z,47.70
2018-03-25T05:35:20.984Z,57.05
2018-03-25T05:37:48.499Z,49.70
2018-03-25T05:40:16.005Z,54.63
2018-03-25T05:42:43.512Z,47.95
2018-03-25T05:45:11.244Z,56.42
2018-03-25T05:47:38.801Z,57.97
2018-03-25T05:50:06.318Z,50.20
2018-03-25T05:52:34.583Z,51.42
2018-03-25T05:55:02.082Z,51.10
2018-03-25T05:57:29.594Z,48.35
2018-03-25T05:59:57.105Z,47.10
2018-03-25T06:02:25.385Z,49.50
2018-03-25T06:04:52.952Z,52.15
2018-03-25T06:07:21.535Z,51.08
2018-03-25T06:09:49.925Z,53.42
2018-03-25T06:12:17.427Z,55.85
2018-03-25T06:14:45.709Z,42.08
2018-03-25T06:17:13.407Z,51.58
2018-03-25T06:19:40.929Z,44.92
2018-03-25T06:22:08.451Z,56.03
2018-03-25T06:24:35.966Z,48.67
2018-03-25T06:27:04.228Z,43.90
2018-03-25T06:29:32.336Z,48.33
2018-03-25T06:31:59.843Z,42.83
2018-03-25T06:34:27.372Z,43.70
2018-03-25T06:36:54.972Z,43.95
2018-03-25T06:39:22.493Z,48.05
2018-03-25T06:41:49.996Z,46.90
2018-03-25T06:44:17.483Z,50.30
2018-03-25T06:46:45.005Z,53.63
2018-03-25T06:49:12.520Z,50.30
2018-03-25T06:51:40.030Z,47.70
2018-03-25T06:54:07.540Z,51.35
2018-03-25T06:56:35.063Z,36.10
2018-03-25T06:59:03.398Z,50.33
2018-03-25T07:01:30.916Z,48.50
2018-03-25T07:03:59.205Z,47.65
2018-03-25T07:06:26.696Z,43.75
2018-03-25T07:08:54.215Z,40.65
2018-03-25T07:11:22.472Z,43.13
2018-03-25T07:13:50.768Z,40.90
2018-03-25T07:16:18.259Z,43.47
2018-03-25T07:18:45.775Z,35.03
2018-03-25T07:21:14.040Z,39.28
2018-03-25T07:23:41.534Z,39.95
2018-03-25T07:26:09.070Z,37.75
2018-03-25T07:28:36.591Z,37.35
2018-03-25T07:31:04.116Z,40.75
2018-03-25T07:33:31.630Z,43.05
2018-03-25T07:35:59.152Z,44.35
2018-03-25T07:38:26.672Z,41.50
2018-03-25T07:40:54.954Z,35.30
2018-03-25T07:43:22.459Z,33.15
2018-03-25T07:45:49.961Z,36.50
2018-03-25T07:48:18.240Z,37.03
2018-03-25T07:50:45.763Z,37.28
2018-03-25T07:53:13.319Z,42.53
2018-03-25T07:55:40.834Z,40.85
2018-03-25T07:58:08.379Z,38.10
2018-03-25T08:00:36.648Z,40.70
2018-03-25T08:03:04.940Z,30.23
2018-03-25T08:05:33.260Z,36.75
2018-03-25T08:08:00.756Z,36.22
2018-03-25T08:10:28.284Z,32.15
2018-03-25T08:12:55.801Z,43.13
2018-03-25T08:15:24.091Z,36.47
2018-03-25T08:17:51.603Z,31.73
2018-03-25T08:20:19.105Z,28.83
2018-03-25T08:22:46.619Z,29.80
2018-03-25T08:25:14.129Z,32.35
2018-03-25T08:27:41.671Z,34.78
2018-03-25T08:30:09.941Z,32.75
2018-03-25T08:32:38.230Z,28.77
2018-03-25T08:35:06.534Z,32.50
2018-03-25T08:37:34.033Z,30.45
2018-03-25T08:40:01.544Z,33.58
2018-03-25T08:42:29.217Z,30.52
2018-03-25T08:44:56.731Z,37.63
2018-03-25T08:47:24.249Z,33.63
2018-03-25T08:49:51.768Z,31.80
2018-03-25T08:52:20.040Z,28.33
2018-03-25T08:54:47.552Z,31.42
2018-03-25T08:57:15.081Z,27.92
2018-03-25T08:59:42.653Z,31.45
2018-03-25T09:02:10.170Z,33.72
2018-03-25T09:04:37.701Z,31.80
2018-03-25T09:07:05.241Z,33.58
2018-03-25T09:09:32.759Z,37.08
2018-03-25T09:12:01.023Z,32.80
2018-03-25T09:14:28.574Z,31.75
2018-03-25T09:16:56.098Z,35.45
2018-03-25T09:19:23.636Z,29.05
2018-03-25T09:21:51.878Z,30.10
2018-03-25T09:24:19.414Z,27.05
2018-03-25T09:26:47.047Z,31.48
2018-03-25T09:29:14.550Z,33.15
2018-03-25T09:31:42.076Z,35.22
2018-03-25T09:34:09.591Z,32.35
2018-03-25T09:36:37.892Z,34.13
2018-03-25T09:39:05.407Z,27.00
2018-03-25T09:41:32.954Z,38.25
2018-03-25T09:44:00.484Z,35.70
2018-03-25T09:46:28.034Z,33.10
2018-03-25T09:48:56.485Z,32.47
2018-03-25T09:51:24.015Z,30.90
2018-03-25T09:53:51.557Z,24.98
2018-03-25T09:56:19.075Z,30.37
2018-03-25T09:58:47.376Z,34.55
2018-03-25T10:01:14.893Z,34.25
2018-03-25T10:03:42.424Z,26.33
2018-03-25T10:06:09.934Z,31.00
2018-03-25T10:08:37.492Z,30.50
2018-03-25T10:11:05.780Z,29.27
2018-03-25T10:13:34.840Z,38.15
2018-03-25T10:16:02.695Z,32.83
2018-03-25T10:18:30.200Z,30.27
2018-03-25T10:20:58.016Z,29.73
2018-03-25T10:23:26.668Z,40.78
2018-03-25T10:25:55.862Z,32.47
2018-03-25T10:28:23.434Z,34.03
2018-03-25T10:30:50.944Z,32.40
2018-03-25T10:33:18.464Z,35.25
2018-03-25T10:35:46.839Z,34.88
2018-03-25T10:38:14.370Z,40.47
2018-03-25T10:40:41.891Z,32.90
2018-03-25T10:43:09.450Z,34.25
2018-03-25T10:45:37.021Z,37.33
2018-03-25T10:48:05.303Z,34.05
2018-03-25T10:50:33.672Z,36.85
2018-03-25T10:53:01.184Z,40.03
2018-03-25T10:55:28.724Z,27.58
2018-03-25T10:57:56.247Z,34.92
2018-03-25T11:00:23.774Z,36.13
2018-03-25T11:02:51.295Z,33.05
2018-03-25T11:05:19.613Z,35.75
2018-03-25T11:07:47.175Z,33.67
2018-03-25T11:10:14.752Z,31.75
2018-03-25T11:12:42.293Z,38.35
2018-03-25T11:15:09.895Z,37.38
2018-03-25T11:17:37.764Z,35.58
2018-03-25T11:20:06.044Z,41.40
2018-03-25T11:22:34.383Z,33.17
2018-03-25T11:25:01.925Z,37.17
2018-03-25T11:27:29.446Z,39.15
2018-03-25T11:29:56.948Z,33.33
2018-03-25T11:32:24.443Z,39.58
2018-03-25T11:34:51.977Z,36.25
2018-03-25T11:37:19.491Z,39.50
2018-03-25T11:39:47.802Z,37.97
2018-03-25T11:42:15.343Z,35.67
2018-03-25T11:44:42.924Z,37.03
2018-03-25T11:47:10.494Z,37.60
2018-03-25T11:49:37.997Z,34.08
2018-03-25T11:52:05.519Z,36.78
2018-03-25T11:54:33.036Z,34.33
2018-03-25T11:57:01.330Z,35.95
2018-03-25T11:59:29.756Z,35.35
2018-03-25T12:01:57.296Z,37.60
2018-03-25T12:04:24.819Z,38.38
2018-03-25T12:06:53.103Z,36.05
2018-03-25T12:09:21.432Z,34.35
2018-03-25T12:11:48.928Z,35.40
2018-03-25T12:14:17.219Z,34.92
2018-03-25T12:16:44.723Z,30.20
2018-03-25T12:19:12.276Z,36.20
2018-03-25T12:21:39.795Z,34.20
2018-03-25T12:24:07.294Z,30.60
2018-03-25T12:26:34.844Z,31.87
2018-03-25T12:29:02.375Z,41.53
2018-03-25T12:31:29.915Z,33.95
2018-03-25T12:33:58.216Z,35.65
2018-03-25T12:36:25.747Z,30.98
2018-03-25T12:38:53.272Z,30.95
2018-03-25T12:41:21.729Z,31.87
2018-03-25T12:43:49.255Z,31.52
2018-03-25T12:46:16.783Z,37.72
2018-03-25T12:48:44.310Z,33.38
2018-03-25T12:51:11.831Z,33.53
2018-03-25T12:53:40.137Z,32.83
2018-03-25T12:56:08.180Z,36.58
2018-03-25T12:58:36.486Z,32.45
2018-03-25T13:01:04.045Z,31.35
2018-03-25T13:03:31.600Z,34.08
2018-03-25T13:05:59.108Z,37.83
2018-03-25T13:08:26.627Z,36.53
2018-03-25T13:10:54.164Z,37.92
2018-03-25T13:13:21.708Z,30.17
2018-03-25T13:15:49.324Z,32.22
2018-03-25T13:18:17.554Z,36.05
2018-03-25T13:20:45.844Z,30.33
2018-03-25T13:23:14.125Z,30.80
2018-03-25T13:25:41.891Z,29.00
2018-03-25T13:28:10.202Z,35.92
2018-03-25T13:30:37.770Z,34.30
2018-03-25T13:33:05.308Z,34.75
2018-03-25T13:35:32.986Z,28.90
2018-03-25T13:38:00.527Z,33.65
2018-03-25T13:40:28.100Z,39.10
2018-03-25T13:42:55.671Z,34.50
2018-03-25T13:45:23.407Z,32.85
2018-03-25T13:47:52.802Z,30.33
2018-03-25T13:50:21.105Z,32.20
2018-03-25T13:52:48.616Z,32.03
2018-03-25T13:55:16.145Z,33.10
2018-03-25T13:57:43.688Z,34.65
2018-03-25T14:00:11.274Z,30.92
2018-03-25T14:02:38.816Z,31.62
2018-03-25T14:05:06.330Z,32.05
2018-03-25T14:07:34.623Z,33.65
2018-03-25T14:10:02.990Z,33.50
2018-03-25T14:12:31.287Z,29.00
2018-03-25T14:14:58.830Z,32.63
2018-03-25T14:17:27.150Z,30.70
2018-03-25T14:19:54.711Z,27.58
2018-03-25T14:22:22.251Z,31.08
2018-03-25T14:24:49.772Z,31.80
2018-03-25T14:27:18.103Z,28.05
2018-03-25T14:29:45.632Z,34.38
2018-03-25T14:32:13.908Z,32.35
2018-03-25T14:34:42.206Z,27.37
2018-03-25T14:37:09.721Z,29.65
2018-03-25T14:39:37.784Z,32.50
2018-03-25T14:42:05.306Z,35.15
2018-03-25T14:44:32.872Z,31.58
2018-03-25T14:47:00.395Z,29.30
2018-03-25T14:49:28.673Z,27.52
2018-03-25T14:51:57.003Z,36.13
2018-03-25T14:54:25.285Z,28.77
2018-03-25T14:56:52.847Z,28.85
2018-03-25T14:59:20.372Z,30.95
2018-03-25T15:01:47.906Z,30.70
2018-03-25T15:04:16.223Z,30.20
2018-03-25T15:06:43.773Z,34.55
2018-03-25T15:09:11.344Z,29.35
2018-03-25T15:11:38.871Z,31.52
2018-03-25T15:14:07.188Z,30.70
2018-03-25T15:16:35.509Z,35.67
2018-03-25T15:19:03.041Z,32.63
2018-03-25T15:21:30.555Z,29.35
2018-03-25T15:23:58.846Z,31.87
2018-03-25T15:26:26.361Z,38.70
2018-03-25T15:28:53.888Z,29.35
2018-03-25T15:31:21.423Z,29.35
2018-03-25T15:33:48.988Z,30.48
2018-03-25T15:36:17.307Z,30.00
2018-03-25T15:38:44.808Z,33.38
2018-03-25T15:41:12.407Z,30.17
2018-03-25T15:43:39.903Z,34.97
2018-03-25T15:46:07.457Z,32.20
2018-03-25T15:48:34.977Z,26.33
2018-03-25T15:51:02.556Z,28.67
2018-03-25T15:53:30.466Z,33.05
2018-03-25T15:55:58.019Z,26.23
2018-03-25T15:58:25.535Z,25.17
2018-03-25T16:00:53.263Z,27.62
2018-03-25T16:03:21.560Z,28.27
2018-03-25T16:05:49.114Z,27.77
2018-03-25T16:08:16.689Z,27.90
2018-03-25T16:10:44.207Z,27.33
2018-03-25T16:13:12.489Z,28.90
2018-03-25T16:15:40.771Z,28.83
2018-03-25T16:18:08.285Z,25.33
2018-03-25T16:20:35.811Z,31.42
2018-03-25T16:23:03.331Z,29.05
2018-03-25T16:25:30.896Z,29.50
2018-03-25T16:27:58.406Z,32.00
2018-03-25T16:30:27.634Z,35.05
2018-03-25T16:32:55.160Z,34.55
2018-03-25T16:35:22.682Z,37.25
2018-03-25T16:37:50.970Z,38.67
2018-03-25T16:40:19.247Z,41.30
2018-03-25T16:42:47.536Z,35.03
2018-03-25T16:45:15.044Z,32.78
2018-03-25T16:47:43.345Z,40.25
2018-03-25T16:50:11.627Z,33.67
2018-03-25T16:52:39.920Z,32.63
2018-03-25T16:55:07.559Z,37.35
2018-03-25T16:57:35.036Z,34.85
2018-03-25T17:00:03.307Z,34.75
2018-03-25T17:02:31.592Z,34.55
2018-03-25T17:04:59.876Z,30.40
2018-03-25T17:07:28.144Z,37.25
2018-03-25T17:09:56.436Z,32.17
2018-03-25T17:12:23.936Z,35.75
2018-03-25T17:14:51.495Z,37.35
2018-03-25T17:17:18.996Z,37.05
2018-03-25T17:19:47.319Z,30.45
2018-03-25T17:22:14.816Z,27.80
2018-03-25T17:24:42.336Z,32.72
2018-03-25T17:27:10.695Z,30.30
2018-03-25T17:29:38.211Z,31.73
2018-03-25T17:32:05.833Z,30.15
2018-03-25T17:34:33.327Z,35.15
2018-03-25T17:37:00.840Z,32.08
2018-03-25T17:39:28.357Z,30.73
2018-03-25T17:41:55.879Z,30.90
2018-03-25T17:44:23.389Z,31.35
2018-03-25T17:46:50.942Z,29.37
2018-03-25T17:49:18.422Z,30.50
2018-03-25T17:51:46.703Z,30.35
2018-03-25T17:54:14.217Z,27.27
2018-03-25T17:56:41.709Z,30.17
2018-03-25T17:59:09.987Z,30.85
2018-03-25T18:01:38.839Z,33.05
2018-03-25T18:04:06.414Z,30.25
2018-03-25T18:06:33.927Z,33.20
2018-03-25T18:09:01.435Z,26.55
2018-03-25T18:11:28.951Z,30.90
2018-03-25T18:13:56.493Z,28.60
2018-03-25T18:16:23.964Z,26.52
2018-03-25T18:18:51.467Z,32.80
2018-03-25T18:21:18.997Z,29.23
2018-03-25T18:23:46.524Z,27.52
2018-03-25T18:26:14.094Z,22.80
2018-03-25T18:28:41.671Z,27.90
2018-03-25T18:31:09.564Z,31.95
2018-03-25T18:33:37.176Z,26.02
2018-03-25T18:36:04.680Z,29.08
2018-03-25T18:38:32.257Z,26.00
2018-03-25T18:40:59.789Z,28.20
2018-03-25T18:43:27.311Z,23.95
2018-03-25T18:45:55.576Z,28.30
2018-03-25T18:48:23.124Z,23.67
2018-03-25T18:50:50.706Z,28.98
2018-03-25T18:53:18.978Z,28.08
2018-03-25T18:55:47.275Z,26.37
2018-03-25T18:58:14.827Z,24.37
2018-03-25T19:00:43.138Z,27.90
2018-03-25T19:03:10.701Z,27.27
2018-03-25T19:05:38.211Z,26.67
2018-03-25T19:08:05.742Z,27.23
2018-03-25T19:10:33.290Z,24.70
2018-03-25T19:13:00.829Z,29.50
2018-03-25T19:15:29.050Z,29.08
2018-03-25T19:17:56.580Z,28.10
2018-03-25T19:20:24.090Z,24.58
2018-03-25T19:22:53.125Z,31.30
2018-03-25T19:25:20.613Z,33.60
2018-03-25T19:27:48.133Z,27.67
2018-03-25T19:30:15.637Z,28.83
2018-03-25T19:32:43.159Z,29.87
2018-03-25T19:35:10.674Z,30.42
2018-03-25T19:37:38.951Z,33.22
2018-03-25T19:40:06.485Z,28.92
2018-03-25T19:42:33.987Z,26.80
2018-03-25T19:45:02.299Z,28.75
2018-03-25T19:47:29.798Z,31.80
2018-03-25T19:49:57.911Z,30.25
2018-03-25T19:52:25.429Z,27.70
2018-03-25T19:54:52.946Z,30.05
2018-03-25T19:57:20.487Z,37.38
2018-03-25T19:59:48.018Z,32.35
2018-03-25T20:02:15.528Z,31.40
2018-03-25T20:04:43.033Z,33.78
2018-03-25T20:07:10.568Z,30.10
2018-03-25T20:09:38.110Z,37.67
2018-03-25T20:12:06.351Z,30.73
2018-03-25T20:14:34.617Z,32.75
2018-03-25T20:17:02.156Z,28.15
2018-03-25T20:19:29.661Z,31.65
2018-03-25T20:21:57.167Z,30.40
2018-03-25T20:24:24.680Z,29.45
2018-03-25T20:26:52.195Z,44.70
2018-03-25T20:29:19.718Z,36.28
2018-03-25T20:31:47.246Z,32.38
2018-03-25T20:34:14.780Z,31.12
2018-03-25T20:36:42.272Z,32.45
2018-03-25T20:39:09.797Z,32.50
2018-03-25T20:41:37.312Z,26.75
2018-03-25T20:44:04.926Z,35.67
2018-03-25T20:46:32.449Z,33.30
2018-03-25T20:48:59.944Z,33.03
2018-03-25T20:51:27.494Z,31.30
2018-03-25T20:53:54.987Z,29.83
2018-03-25T20:56:23.296Z,27.23
2018-03-25T20:58:50.804Z,35.47
2018-03-25T21:01:18.347Z,32.00
2018-03-25T21:03:45.972Z,29.12
2018-03-25T21:06:13.476Z,35.40
2018-03-25T21:08:41.004Z,30.37
2018-03-25T21:11:08.501Z,35.17
2018-03-25T21:13:36.026Z,43.40
2018-03-25T21:16:03.520Z,36.55
2018-03-25T21:18:31.088Z,41.92
2018-03-25T21:20:58.577Z,32.95
2018-03-25T21:23:26.159Z,37.55
2018-03-25T21:25:53.672Z,35.53
2018-03-25T21:28:21.951Z,36.08
2018-03-25T21:30:50.230Z,36.30
2018-03-25T21:33:17.731Z,32.58
2018-03-25T21:35:45.264Z,34.00
2018-03-25T21:38:12.756Z,36.17
2018-03-25T21:40:40.267Z,39.50
2018-03-25T21:43:08.552Z,36.78
2018-03-25T21:45:36.855Z,39.90
2018-03-25T21:48:04.351Z,36.05
2018-03-25T21:50:31.878Z,35.53
2018-03-25T21:52:59.408Z,35.25
2018-03-25T21:55:26.919Z,36.45
2018-03-25T21:57:54.443Z,32.35
2018-03-25T22:00:21.938Z,38.63
2018-03-25T22:02:49.457Z,43.10
2018-03-25T22:05:16.958Z,35.47
2018-03-25T22:07:44.512Z,40.17
2018-03-25T22:10:12.021Z,39.17
2018-03-25T22:12:40.309Z,33.35
2018-03-25T22:15:07.823Z,38.05
2018-03-25T22:17:35.351Z,37.63
2018-03-25T22:20:02.884Z,37.72
2018-03-25T22:22:31.725Z,33.92
2018-03-25T22:25:00.052Z,40.35
2018-03-25T22:27:28.337Z,38.97
2018-03-25T22:29:55.869Z,38.38
2018-03-25T22:32:23.371Z,46.50
2018-03-25T22:34:50.903Z,35.35
2018-03-25T22:37:19.607Z,36.90
2018-03-25T22:39:47.124Z,37.40
2018-03-25T22:42:14.765Z,44.38
2018-03-25T22:44:42.271Z,50.00
2018-03-25T22:47:10.572Z,37.40
2018-03-25T22:49:38.096Z,36.25
2018-03-25T22:52:05.632Z,36.45
2018-03-25T22:54:33.133Z,42.30
2018-03-25T22:57:00.656Z,34.40
2018-03-25T22:59:28.916Z,31.42
2018-03-25T23:01:56.426Z,38.10
2018-03-25T23:04:24.695Z,42.33
2018-03-25T23:06:52.179Z,39.28
2018-03-25T23:09:19.727Z,39.58
2018-03-25T23:11:48.004Z,38.75
2018-03-25T23:14:16.289Z,36.78
2018-03-25T23:16:43.779Z,38.65
2018-03-25T23:19:11.435Z,40.50
2018-03-25T23:21:38.949Z,39.65
2018-03-25T23:24:07.233Z,40.75
2018-03-25T23:26:35.519Z,36.55
2018-03-25T23:29:03.811Z,35.38
2018-03-25T23:31:31.379Z,43.90
2018-03-25T23:33:58.883Z,42.35
2018-03-25T23:36:26.443Z,36.33
2018-03-25T23:38:53.967Z,38.85
2018-03-25T23:41:21.469Z,42.85
2018-03-25T23:43:48.979Z,47.22
2018-03-25T23:46:16.492Z,37.72
2018-03-25T23:48:44.032Z,32.38
2018-03-25T23:51:11.542Z,36.65
2018-03-25T23:53:39.079Z,43.13
2018-03-25T23:56:07.382Z,44.20
2018-03-25T23:58:34.912Z,47.58
